sensor_id;sensor_type;location;lat;lon;timestamp;P1;durP1;ratioP1;P2;durP2;ratioP2
7398;SDS011;3740;50.700;7.184;2023-04-28T00:00:43;4.50;;;4.10;;
7398;SDS011;3740;50.700;7.184;2023-04-28T00:03:08;6.80;;;4.40;;
7398;SDS011;3740;50.700;7.184;2023-04-28T00:05:34;5.50;;;4.33;;
7398;SDS011;3740;50.700;7.184;2023-04-28T00:08:00;6.90;;;4.57;;
7398;SDS011;3740;50.700;7.184;2023-04-28T00:10:27;6.13;;;3.80;;
7398;SDS011;3740;50.700;7.184;2023-04-28T00:12:53;5.33;;;4.10;;
7398;SDS011;3740;50.700;7.184;2023-04-28T00:15:18;4.60;;;3.97;;
7398;SDS011;3740;50.700;7.184;2023-04-28T00:17:44;7.03;;;4.20;;
7398;SDS011;3740;50.700;7.184;2023-04-28T00:20:10;6.07;;;3.97;;
7398;SDS011;3740;50.700;7.184;2023-04-28T00:22:35;6.67;;;4.40;;
7398;SDS011;3740;50.700;7.184;2023-04-28T00:25:01;5.70;;;4.07;;
7398;SDS011;3740;50.700;7.184;2023-04-28T00:27:27;5.03;;;4.20;;
7398;SDS011;3740;50.700;7.184;2023-04-28T00:29:52;5.60;;;4.37;;
7398;SDS011;3740;50.700;7.184;2023-04-28T00:32:18;5.63;;;4.10;;
7398;SDS011;3740;50.700;7.184;2023-04-28T00:34:44;6.17;;;4.30;;
7398;SDS011;3740;50.700;7.184;2023-04-28T00:37:10;4.90;;;4.10;;
7398;SDS011;3740;50.700;7.184;2023-04-28T00:39:35;7.17;;;4.40;;
7398;SDS011;3740;50.700;7.184;2023-04-28T00:42:01;6.13;;;4.60;;
7398;SDS011;3740;50.700;7.184;2023-04-28T00:44:28;5.73;;;4.23;;
7398;SDS011;3740;50.700;7.184;2023-04-28T00:46:54;5.30;;;4.43;;
7398;SDS011;3740;50.700;7.184;2023-04-28T00:49:20;6.50;;;4.93;;
7398;SDS011;3740;50.700;7.184;2023-04-28T00:51:46;6.03;;;4.07;;
7398;SDS011;3740;50.700;7.184;2023-04-28T00:54:14;5.53;;;4.40;;
7398;SDS011;3740;50.700;7.184;2023-04-28T00:56:40;6.90;;;3.90;;
7398;SDS011;3740;50.700;7.184;2023-04-28T00:59:07;5.47;;;4.13;;
7398;SDS011;3740;50.700;7.184;2023-04-28T01:01:33;7.77;;;4.07;;
7398;SDS011;3740;50.700;7.184;2023-04-28T01:03:59;5.27;;;4.53;;
7398;SDS011;3740;50.700;7.184;2023-04-28T01:06:25;4.90;;;4.10;;
7398;SDS011;3740;50.700;7.184;2023-04-28T01:08:52;6.77;;;4.57;;
7398;SDS011;3740;50.700;7.184;2023-04-28T01:11:18;10.67;;;4.57;;
7398;SDS011;3740;50.700;7.184;2023-04-28T01:13:44;6.07;;;4.57;;
7398;SDS011;3740;50.700;7.184;2023-04-28T01:16:10;5.63;;;4.33;;
7398;SDS011;3740;50.700;7.184;2023-04-28T01:18:35;5.60;;;4.30;;
7398;SDS011;3740;50.700;7.184;2023-04-28T01:21:01;5.30;;;4.80;;
7398;SDS011;3740;50.700;7.184;2023-04-28T01:23:28;6.23;;;4.43;;
7398;SDS011;3740;50.700;7.184;2023-04-28T01:25:54;6.77;;;4.00;;
7398;SDS011;3740;50.700;7.184;2023-04-28T01:28:20;5.17;;;3.87;;
7398;SDS011;3740;50.700;7.184;2023-04-28T01:30:46;4.27;;;3.40;;
7398;SDS011;3740;50.700;7.184;2023-04-28T01:33:11;5.30;;;3.90;;
7398;SDS011;3740;50.700;7.184;2023-04-28T01:35:37;5.97;;;3.97;;
7398;SDS011;3740;50.700;7.184;2023-04-28T01:38:02;6.77;;;4.07;;
7398;SDS011;3740;50.700;7.184;2023-04-28T01:40:28;8.47;;;4.33;;
7398;SDS011;3740;50.700;7.184;2023-04-28T01:42:53;5.50;;;4.40;;
7398;SDS011;3740;50.700;7.184;2023-04-28T01:45:19;5.27;;;4.40;;
7398;SDS011;3740;50.700;7.184;2023-04-28T01:47:44;6.87;;;4.47;;
7398;SDS011;3740;50.700;7.184;2023-04-28T01:50:10;6.60;;;5.00;;
7398;SDS011;3740;50.700;7.184;2023-04-28T01:52:36;5.50;;;4.90;;
7398;SDS011;3740;50.700;7.184;2023-04-28T01:55:01;7.73;;;5.57;;
7398;SDS011;3740;50.700;7.184;2023-04-28T01:57:27;6.20;;;5.60;;
7398;SDS011;3740;50.700;7.184;2023-04-28T01:59:53;7.13;;;6.00;;
7398;SDS011;3740;50.700;7.184;2023-04-28T02:02:19;7.30;;;6.37;;
7398;SDS011;3740;50.700;7.184;2023-04-28T02:04:44;7.00;;;5.70;;
7398;SDS011;3740;50.700;7.184;2023-04-28T02:07:10;5.50;;;4.97;;
7398;SDS011;3740;50.700;7.184;2023-04-28T02:09:35;5.90;;;5.07;;
7398;SDS011;3740;50.700;7.184;2023-04-28T02:12:01;7.30;;;5.63;;
7398;SDS011;3740;50.700;7.184;2023-04-28T02:14:27;8.77;;;6.13;;
7398;SDS011;3740;50.700;7.184;2023-04-28T02:16:56;6.30;;;5.70;;
7398;SDS011;3740;50.700;7.184;2023-04-28T02:19:22;7.03;;;5.33;;
7398;SDS011;3740;50.700;7.184;2023-04-28T02:21:48;8.13;;;5.60;;
7398;SDS011;3740;50.700;7.184;2023-04-28T02:24:13;6.63;;;5.87;;
7398;SDS011;3740;50.700;7.184;2023-04-28T02:26:39;6.23;;;5.70;;
7398;SDS011;3740;50.700;7.184;2023-04-28T02:29:05;6.37;;;5.00;;
7398;SDS011;3740;50.700;7.184;2023-04-28T02:31:31;5.00;;;4.50;;
7398;SDS011;3740;50.700;7.184;2023-04-28T02:33:57;5.67;;;5.00;;
7398;SDS011;3740;50.700;7.184;2023-04-28T02:36:22;5.83;;;5.23;;
7398;SDS011;3740;50.700;7.184;2023-04-28T02:38:48;5.63;;;4.80;;
7398;SDS011;3740;50.700;7.184;2023-04-28T02:41:13;6.13;;;5.20;;
7398;SDS011;3740;50.700;7.184;2023-04-28T02:43:39;5.80;;;5.20;;
7398;SDS011;3740;50.700;7.184;2023-04-28T02:46:05;5.43;;;4.93;;
7398;SDS011;3740;50.700;7.184;2023-04-28T02:48:31;7.07;;;5.40;;
7398;SDS011;3740;50.700;7.184;2023-04-28T02:50:59;6.67;;;5.57;;
7398;SDS011;3740;50.700;7.184;2023-04-28T02:53:25;6.13;;;5.10;;
7398;SDS011;3740;50.700;7.184;2023-04-28T02:55:51;6.03;;;5.07;;
7398;SDS011;3740;50.700;7.184;2023-04-28T02:58:16;7.00;;;5.20;;
7398;SDS011;3740;50.700;7.184;2023-04-28T03:00:42;5.77;;;5.27;;
7398;SDS011;3740;50.700;7.184;2023-04-28T03:03:08;5.60;;;5.10;;
7398;SDS011;3740;50.700;7.184;2023-04-28T03:05:34;6.00;;;5.50;;
7398;SDS011;3740;50.700;7.184;2023-04-28T03:08:00;7.20;;;5.77;;
7398;SDS011;3740;50.700;7.184;2023-04-28T03:10:26;6.83;;;5.80;;
7398;SDS011;3740;50.700;7.184;2023-04-28T03:12:51;6.13;;;5.47;;
7398;SDS011;3740;50.700;7.184;2023-04-28T03:15:17;8.20;;;5.87;;
7398;SDS011;3740;50.700;7.184;2023-04-28T03:17:42;6.43;;;5.83;;
7398;SDS011;3740;50.700;7.184;2023-04-28T03:20:08;7.17;;;5.73;;
7398;SDS011;3740;50.700;7.184;2023-04-28T03:22:35;6.80;;;6.20;;
7398;SDS011;3740;50.700;7.184;2023-04-28T03:25:00;7.17;;;6.47;;
7398;SDS011;3740;50.700;7.184;2023-04-28T03:27:26;6.93;;;6.13;;
7398;SDS011;3740;50.700;7.184;2023-04-28T03:29:52;7.30;;;6.17;;
7398;SDS011;3740;50.700;7.184;2023-04-28T03:32:18;6.50;;;5.90;;
7398;SDS011;3740;50.700;7.184;2023-04-28T03:34:43;10.53;;;6.40;;
7398;SDS011;3740;50.700;7.184;2023-04-28T03:37:09;6.90;;;6.20;;
7398;SDS011;3740;50.700;7.184;2023-04-28T03:39:34;7.40;;;5.97;;
7398;SDS011;3740;50.700;7.184;2023-04-28T03:42:00;10.47;;;6.03;;
7398;SDS011;3740;50.700;7.184;2023-04-28T03:44:26;6.60;;;5.90;;
7398;SDS011;3740;50.700;7.184;2023-04-28T03:46:51;5.60;;;5.00;;
7398;SDS011;3740;50.700;7.184;2023-04-28T03:49:17;5.80;;;5.20;;
7398;SDS011;3740;50.700;7.184;2023-04-28T03:51:42;6.37;;;5.40;;
7398;SDS011;3740;50.700;7.184;2023-04-28T03:54:09;6.83;;;5.23;;
7398;SDS011;3740;50.700;7.184;2023-04-28T03:56:34;6.03;;;5.40;;
7398;SDS011;3740;50.700;7.184;2023-04-28T03:59:00;6.10;;;5.07;;
7398;SDS011;3740;50.700;7.184;2023-04-28T04:01:25;5.87;;;5.23;;
7398;SDS011;3740;50.700;7.184;2023-04-28T04:03:51;5.70;;;5.20;;
7398;SDS011;3740;50.700;7.184;2023-04-28T04:06:16;5.97;;;5.37;;
7398;SDS011;3740;50.700;7.184;2023-04-28T04:08:42;7.20;;;5.77;;
7398;SDS011;3740;50.700;7.184;2023-04-28T04:11:08;6.43;;;5.40;;
7398;SDS011;3740;50.700;7.184;2023-04-28T04:13:33;6.60;;;5.77;;
7398;SDS011;3740;50.700;7.184;2023-04-28T04:15:59;5.50;;;5.07;;
7398;SDS011;3740;50.700;7.184;2023-04-28T04:18:24;6.83;;;6.13;;
7398;SDS011;3740;50.700;7.184;2023-04-28T04:20:51;6.57;;;5.83;;
7398;SDS011;3740;50.700;7.184;2023-04-28T04:23:18;6.00;;;5.40;;
7398;SDS011;3740;50.700;7.184;2023-04-28T04:25:43;6.70;;;6.00;;
7398;SDS011;3740;50.700;7.184;2023-04-28T04:28:09;8.43;;;5.73;;
7398;SDS011;3740;50.700;7.184;2023-04-28T04:30:34;7.03;;;5.70;;
7398;SDS011;3740;50.700;7.184;2023-04-28T04:33:00;6.70;;;6.00;;
7398;SDS011;3740;50.700;7.184;2023-04-28T04:35:26;7.37;;;6.37;;
7398;SDS011;3740;50.700;7.184;2023-04-28T04:37:51;6.40;;;5.80;;
7398;SDS011;3740;50.700;7.184;2023-04-28T04:40:17;6.70;;;5.40;;
7398;SDS011;3740;50.700;7.184;2023-04-28T04:42:43;7.00;;;6.23;;
7398;SDS011;3740;50.700;7.184;2023-04-28T04:45:08;7.90;;;5.70;;
7398;SDS011;3740;50.700;7.184;2023-04-28T04:47:34;7.07;;;5.87;;
7398;SDS011;3740;50.700;7.184;2023-04-28T04:49:59;5.47;;;4.97;;
7398;SDS011;3740;50.700;7.184;2023-04-28T04:52:25;6.20;;;5.60;;
7398;SDS011;3740;50.700;7.184;2023-04-28T04:54:51;6.93;;;5.33;;
7398;SDS011;3740;50.700;7.184;2023-04-28T04:57:16;6.40;;;5.40;;
7398;SDS011;3740;50.700;7.184;2023-04-28T04:59:42;5.93;;;5.20;;
7398;SDS011;3740;50.700;7.184;2023-04-28T05:02:07;6.77;;;5.80;;
7398;SDS011;3740;50.700;7.184;2023-04-28T05:04:33;5.90;;;5.30;;
7398;SDS011;3740;50.700;7.184;2023-04-28T05:06:58;6.00;;;5.50;;
7398;SDS011;3740;50.700;7.184;2023-04-28T05:09:24;6.00;;;5.40;;
7398;SDS011;3740;50.700;7.184;2023-04-28T05:11:50;5.83;;;5.23;;
7398;SDS011;3740;50.700;7.184;2023-04-28T05:14:15;7.53;;;5.50;;
7398;SDS011;3740;50.700;7.184;2023-04-28T05:16:41;5.90;;;5.37;;
7398;SDS011;3740;50.700;7.184;2023-04-28T05:19:07;7.33;;;5.23;;
7398;SDS011;3740;50.700;7.184;2023-04-28T05:21:32;5.80;;;5.27;;
7398;SDS011;3740;50.700;7.184;2023-04-28T05:23:58;7.27;;;5.57;;
7398;SDS011;3740;50.700;7.184;2023-04-28T05:26:23;6.00;;;5.40;;
7398;SDS011;3740;50.700;7.184;2023-04-28T05:28:49;6.97;;;6.20;;
7398;SDS011;3740;50.700;7.184;2023-04-28T05:31:15;6.47;;;5.87;;
7398;SDS011;3740;50.700;7.184;2023-04-28T05:33:41;6.83;;;5.97;;
7398;SDS011;3740;50.700;7.184;2023-04-28T05:36:06;7.23;;;5.83;;
7398;SDS011;3740;50.700;7.184;2023-04-28T05:38:32;7.43;;;5.57;;
7398;SDS011;3740;50.700;7.184;2023-04-28T05:40:59;6.23;;;5.63;;
7398;SDS011;3740;50.700;7.184;2023-04-28T05:43:25;6.60;;;5.90;;
7398;SDS011;3740;50.700;7.184;2023-04-28T05:45:51;8.23;;;6.37;;
7398;SDS011;3740;50.700;7.184;2023-04-28T05:48:16;9.43;;;6.87;;
7398;SDS011;3740;50.700;7.184;2023-04-28T05:50:42;8.27;;;6.03;;
7398;SDS011;3740;50.700;7.184;2023-04-28T05:53:07;6.80;;;6.03;;
7398;SDS011;3740;50.700;7.184;2023-04-28T05:55:33;7.00;;;6.30;;
7398;SDS011;3740;50.700;7.184;2023-04-28T05:58:00;8.30;;;6.87;;
7398;SDS011;3740;50.700;7.184;2023-04-28T06:00:26;8.17;;;7.10;;
7398;SDS011;3740;50.700;7.184;2023-04-28T06:02:52;8.87;;;6.50;;
7398;SDS011;3740;50.700;7.184;2023-04-28T06:05:17;7.33;;;6.50;;
7398;SDS011;3740;50.700;7.184;2023-04-28T06:07:43;8.80;;;7.00;;
7398;SDS011;3740;50.700;7.184;2023-04-28T06:10:09;7.73;;;6.80;;
7398;SDS011;3740;50.700;7.184;2023-04-28T06:12:34;7.90;;;6.30;;
7398;SDS011;3740;50.700;7.184;2023-04-28T06:15:01;7.10;;;6.47;;
7398;SDS011;3740;50.700;7.184;2023-04-28T06:17:27;6.60;;;6.00;;
7398;SDS011;3740;50.700;7.184;2023-04-28T06:19:55;7.03;;;6.33;;
7398;SDS011;3740;50.700;7.184;2023-04-28T06:22:22;7.23;;;6.57;;
7398;SDS011;3740;50.700;7.184;2023-04-28T06:24:48;7.00;;;6.30;;
7398;SDS011;3740;50.700;7.184;2023-04-28T06:27:14;7.07;;;6.37;;
7398;SDS011;3740;50.700;7.184;2023-04-28T06:29:40;6.63;;;6.03;;
7398;SDS011;3740;50.700;7.184;2023-04-28T06:32:05;6.37;;;5.77;;
7398;SDS011;3740;50.700;7.184;2023-04-28T06:34:31;7.00;;;6.30;;
7398;SDS011;3740;50.700;7.184;2023-04-28T06:36:59;6.87;;;5.90;;
7398;SDS011;3740;50.700;7.184;2023-04-28T06:39:25;7.03;;;6.33;;
7398;SDS011;3740;50.700;7.184;2023-04-28T06:41:51;7.90;;;6.70;;
7398;SDS011;3740;50.700;7.184;2023-04-28T06:44:17;7.53;;;6.50;;
7398;SDS011;3740;50.700;7.184;2023-04-28T06:46:42;6.83;;;6.23;;
7398;SDS011;3740;50.700;7.184;2023-04-28T06:49:08;7.20;;;6.30;;
7398;SDS011;3740;50.700;7.184;2023-04-28T06:51:34;6.67;;;5.97;;
7398;SDS011;3740;50.700;7.184;2023-04-28T06:53:59;7.63;;;6.37;;
7398;SDS011;3740;50.700;7.184;2023-04-28T06:56:25;8.10;;;6.07;;
7398;SDS011;3740;50.700;7.184;2023-04-28T06:58:51;7.23;;;6.50;;
7398;SDS011;3740;50.700;7.184;2023-04-28T07:01:18;8.93;;;7.20;;
7398;SDS011;3740;50.700;7.184;2023-04-28T07:03:44;8.13;;;6.53;;
7398;SDS011;3740;50.700;7.184;2023-04-28T07:06:10;7.20;;;6.53;;
7398;SDS011;3740;50.700;7.184;2023-04-28T07:08:36;7.80;;;7.03;;
7398;SDS011;3740;50.700;7.184;2023-04-28T07:11:02;7.37;;;6.03;;
7398;SDS011;3740;50.700;7.184;2023-04-28T07:13:31;7.30;;;6.60;;
7398;SDS011;3740;50.700;7.184;2023-04-28T07:15:57;6.83;;;6.23;;
7398;SDS011;3740;50.700;7.184;2023-04-28T07:18:22;6.93;;;6.07;;
7398;SDS011;3740;50.700;7.184;2023-04-28T07:20:48;6.80;;;6.13;;
7398;SDS011;3740;50.700;7.184;2023-04-28T07:23:14;7.43;;;6.70;;
7398;SDS011;3740;50.700;7.184;2023-04-28T07:25:39;6.97;;;6.27;;
7398;SDS011;3740;50.700;7.184;2023-04-28T07:28:05;7.57;;;6.77;;
7398;SDS011;3740;50.700;7.184;2023-04-28T07:30:31;6.90;;;6.20;;
7398;SDS011;3740;50.700;7.184;2023-04-28T07:32:58;8.10;;;7.07;;
7398;SDS011;3740;50.700;7.184;2023-04-28T07:35:24;7.03;;;6.33;;
7398;SDS011;3740;50.700;7.184;2023-04-28T07:37:49;7.43;;;6.50;;
7398;SDS011;3740;50.700;7.184;2023-04-28T07:40:15;7.20;;;6.50;;
7398;SDS011;3740;50.700;7.184;2023-04-28T07:42:41;9.20;;;6.70;;
7398;SDS011;3740;50.700;7.184;2023-04-28T07:45:06;7.47;;;6.77;;
7398;SDS011;3740;50.700;7.184;2023-04-28T07:47:32;9.13;;;6.40;;
7398;SDS011;3740;50.700;7.184;2023-04-28T07:49:58;7.10;;;6.37;;
7398;SDS011;3740;50.700;7.184;2023-04-28T07:52:27;7.80;;;7.00;;
7398;SDS011;3740;50.700;7.184;2023-04-28T07:54:52;8.27;;;7.07;;
7398;SDS011;3740;50.700;7.184;2023-04-28T07:57:18;7.70;;;7.00;;
7398;SDS011;3740;50.700;7.184;2023-04-28T07:59:43;7.37;;;6.30;;
7398;SDS011;3740;50.700;7.184;2023-04-28T08:02:09;9.20;;;6.80;;
7398;SDS011;3740;50.700;7.184;2023-04-28T08:04:37;7.93;;;6.70;;
7398;SDS011;3740;50.700;7.184;2023-04-28T08:07:03;6.83;;;6.20;;
7398;SDS011;3740;50.700;7.184;2023-04-28T08:09:29;7.70;;;6.90;;
7398;SDS011;3740;50.700;7.184;2023-04-28T08:11:54;6.80;;;6.20;;
7398;SDS011;3740;50.700;7.184;2023-04-28T08:14:20;6.93;;;6.23;;
7398;SDS011;3740;50.700;7.184;2023-04-28T08:16:46;6.50;;;5.87;;
7398;SDS011;3740;50.700;7.184;2023-04-28T08:19:12;6.23;;;5.63;;
7398;SDS011;3740;50.700;7.184;2023-04-28T08:21:38;6.17;;;5.57;;
7398;SDS011;3740;50.700;7.184;2023-04-28T08:24:03;5.90;;;5.30;;
7398;SDS011;3740;50.700;7.184;2023-04-28T08:26:29;6.37;;;5.77;;
7398;SDS011;3740;50.700;7.184;2023-04-28T08:28:55;5.53;;;5.03;;
7398;SDS011;3740;50.700;7.184;2023-04-28T08:31:20;5.60;;;5.07;;
7398;SDS011;3740;50.700;7.184;2023-04-28T08:33:46;6.10;;;5.50;;
7398;SDS011;3740;50.700;7.184;2023-04-28T08:36:15;6.13;;;5.53;;
7398;SDS011;3740;50.700;7.184;2023-04-28T08:38:42;6.97;;;5.67;;
7398;SDS011;3740;50.700;7.184;2023-04-28T08:41:09;6.53;;;5.97;;
7398;SDS011;3740;50.700;7.184;2023-04-28T08:43:37;5.80;;;5.30;;
7398;SDS011;3740;50.700;7.184;2023-04-28T08:46:06;6.73;;;5.77;;
7398;SDS011;3740;50.700;7.184;2023-04-28T08:48:38;6.13;;;5.53;;
7398;SDS011;3740;50.700;7.184;2023-04-28T08:51:11;6.17;;;5.57;;
7398;SDS011;3740;50.700;7.184;2023-04-28T08:53:40;6.80;;;6.20;;
7398;SDS011;3740;50.700;7.184;2023-04-28T08:56:09;7.53;;;6.10;;
7398;SDS011;3740;50.700;7.184;2023-04-28T08:58:38;7.10;;;6.40;;
7398;SDS011;3740;50.700;7.184;2023-04-28T09:01:04;7.10;;;5.60;;
7398;SDS011;3740;50.700;7.184;2023-04-28T09:03:30;6.13;;;5.53;;
7398;SDS011;3740;50.700;7.184;2023-04-28T09:06:00;6.37;;;5.77;;
7398;SDS011;3740;50.700;7.184;2023-04-28T09:08:26;5.97;;;5.27;;
7398;SDS011;3740;50.700;7.184;2023-04-28T09:11:05;7.17;;;5.43;;
7398;SDS011;3740;50.700;7.184;2023-04-28T09:13:32;6.70;;;6.03;;
7398;SDS011;3740;50.700;7.184;2023-04-28T09:15:58;6.30;;;5.70;;
7398;SDS011;3740;50.700;7.184;2023-04-28T09:18:25;6.67;;;6.00;;
7398;SDS011;3740;50.700;7.184;2023-04-28T09:20:51;7.03;;;6.43;;
7398;SDS011;3740;50.700;7.184;2023-04-28T09:23:20;6.97;;;6.27;;
7398;SDS011;3740;50.700;7.184;2023-04-28T09:25:59;7.47;;;6.10;;
7398;SDS011;3740;50.700;7.184;2023-04-28T09:28:25;7.37;;;6.57;;
7398;SDS011;3740;50.700;7.184;2023-04-28T09:30:50;5.77;;;5.27;;
7398;SDS011;3740;50.700;7.184;2023-04-28T09:33:16;5.97;;;5.40;;
7398;SDS011;3740;50.700;7.184;2023-04-28T09:35:42;5.67;;;5.10;;
7398;SDS011;3740;50.700;7.184;2023-04-28T09:38:12;6.07;;;5.27;;
7398;SDS011;3740;50.700;7.184;2023-04-28T09:40:48;7.93;;;5.75;;
7398;SDS011;3740;50.700;7.184;2023-04-28T09:43:22;6.83;;;5.43;;
7398;SDS011;3740;50.700;7.184;2023-04-28T09:45:48;5.07;;;4.57;;
7398;SDS011;3740;50.700;7.184;2023-04-28T09:48:14;5.53;;;5.00;;
7398;SDS011;3740;50.700;7.184;2023-04-28T09:50:39;5.38;;;4.65;;
7398;SDS011;3740;50.700;7.184;2023-04-28T09:53:05;5.40;;;4.93;;
7398;SDS011;3740;50.700;7.184;2023-04-28T09:55:37;5.70;;;5.15;;
7398;SDS011;3740;50.700;7.184;2023-04-28T09:58:08;5.38;;;4.80;;
7398;SDS011;3740;50.700;7.184;2023-04-28T10:00:34;7.80;;;5.57;;
7398;SDS011;3740;50.700;7.184;2023-04-28T10:03:01;5.93;;;5.33;;
7398;SDS011;3740;50.700;7.184;2023-04-28T10:05:27;5.93;;;5.33;;
7398;SDS011;3740;50.700;7.184;2023-04-28T10:07:52;6.30;;;5.70;;
7398;SDS011;3740;50.700;7.184;2023-04-28T10:10:20;7.65;;;6.05;;
7398;SDS011;3740;50.700;7.184;2023-04-28T10:12:46;8.37;;;5.90;;
7398;SDS011;3740;50.700;7.184;2023-04-28T10:15:12;5.10;;;4.55;;
7398;SDS011;3740;50.700;7.184;2023-04-28T10:17:37;5.85;;;5.35;;
7398;SDS011;3740;50.700;7.184;2023-04-28T10:20:03;9.13;;;6.00;;
7398;SDS011;3740;50.700;7.184;2023-04-28T10:25:34;5.80;;;5.25;;
7398;SDS011;3740;50.700;7.184;2023-04-28T10:28:03;6.35;;;5.47;;
7398;SDS011;3740;50.700;7.184;2023-04-28T10:30:31;5.47;;;4.90;;
7398;SDS011;3740;50.700;7.184;2023-04-28T10:33:21;6.05;;;5.45;;
7398;SDS011;3740;50.700;7.184;2023-04-28T10:35:46;5.43;;;4.97;;
7398;SDS011;3740;50.700;7.184;2023-04-28T10:38:13;5.28;;;4.78;;
7398;SDS011;3740;50.700;7.184;2023-04-28T10:40:45;5.20;;;4.70;;
7398;SDS011;3740;50.700;7.184;2023-04-28T10:48:21;5.53;;;5.03;;
7398;SDS011;3740;50.700;7.184;2023-04-28T10:56:13;5.57;;;4.88;;
7398;SDS011;3740;50.700;7.184;2023-04-28T10:58:41;6.60;;;4.97;;
7398;SDS011;3740;50.700;7.184;2023-04-28T11:01:43;4.65;;;4.13;;
7398;SDS011;3740;50.700;7.184;2023-04-28T11:04:08;4.55;;;4.15;;
7398;SDS011;3740;50.700;7.184;2023-04-28T11:06:42;5.00;;;3.80;;
7398;SDS011;3740;50.700;7.184;2023-04-28T11:12:23;4.30;;;3.90;;
7398;SDS011;3740;50.700;7.184;2023-04-28T11:19:31;3.63;;;3.33;;
7398;SDS011;3740;50.700;7.184;2023-04-28T11:22:05;5.22;;;4.40;;
7398;SDS011;3740;50.700;7.184;2023-04-28T11:24:37;5.00;;;4.50;;
7398;SDS011;3740;50.700;7.184;2023-04-28T11:27:03;3.80;;;3.50;;
7398;SDS011;3740;50.700;7.184;2023-04-28T11:29:33;3.85;;;3.55;;
7398;SDS011;3740;50.700;7.184;2023-04-28T11:32:00;3.72;;;3.38;;
7398;SDS011;3740;50.700;7.184;2023-04-28T11:34:27;4.18;;;3.63;;
7398;SDS011;3740;50.700;7.184;2023-04-28T11:36:54;2.40;;;2.20;;
7398;SDS011;3740;50.700;7.184;2023-04-28T11:41:53;1.92;;;1.65;;
7398;SDS011;3740;50.700;7.184;2023-04-28T11:44:20;0.80;;;0.80;;
7398;SDS011;3740;50.700;7.184;2023-04-28T11:46:47;1.30;;;1.00;;
7398;SDS011;3740;50.700;7.184;2023-04-28T11:49:17;1.80;;;1.33;;
7398;SDS011;3740;50.700;7.184;2023-04-28T11:51:43;1.60;;;1.50;;
7398;SDS011;3740;50.700;7.184;2023-04-28T11:54:11;1.20;;;1.20;;
7398;SDS011;3740;50.700;7.184;2023-04-28T11:56:39;2.15;;;1.85;;
7398;SDS011;3740;50.700;7.184;2023-04-28T11:59:06;1.80;;;1.70;;
7398;SDS011;3740;50.700;7.184;2023-04-28T12:01:34;2.30;;;2.13;;
7398;SDS011;3740;50.700;7.184;2023-04-28T12:04:09;2.42;;;2.22;;
7398;SDS011;3740;50.700;7.184;2023-04-28T12:06:34;2.00;;;1.90;;
7398;SDS011;3740;50.700;7.184;2023-04-28T12:09:00;1.80;;;1.70;;
7398;SDS011;3740;50.700;7.184;2023-04-28T12:11:54;1.98;;;1.85;;
7398;SDS011;3740;50.700;7.184;2023-04-28T12:14:24;2.28;;;2.08;;
7398;SDS011;3740;50.700;7.184;2023-04-28T12:16:50;1.85;;;1.75;;
7398;SDS011;3740;50.700;7.184;2023-04-28T12:19:16;2.10;;;2.00;;
7398;SDS011;3740;50.700;7.184;2023-04-28T12:21:42;1.77;;;1.67;;
7398;SDS011;3740;50.700;7.184;2023-04-28T12:24:20;1.08;;;1.08;;
7398;SDS011;3740;50.700;7.184;2023-04-28T12:26:47;1.52;;;1.20;;
7398;SDS011;3740;50.700;7.184;2023-04-28T12:32:02;1.23;;;1.13;;
7398;SDS011;3740;50.700;7.184;2023-04-28T12:34:28;1.10;;;1.10;;
7398;SDS011;3740;50.700;7.184;2023-04-28T12:36:55;1.00;;;1.00;;
7398;SDS011;3740;50.700;7.184;2023-04-28T12:39:20;1.50;;;1.40;;
7398;SDS011;3740;50.700;7.184;2023-04-28T12:41:47;1.05;;;1.05;;
7398;SDS011;3740;50.700;7.184;2023-04-28T12:44:12;1.00;;;1.00;;
7398;SDS011;3740;50.700;7.184;2023-04-28T12:46:39;0.75;;;0.75;;
7398;SDS011;3740;50.700;7.184;2023-04-28T12:49:05;1.00;;;1.00;;
7398;SDS011;3740;50.700;7.184;2023-04-28T12:51:31;1.13;;;1.10;;
7398;SDS011;3740;50.700;7.184;2023-04-28T12:53:59;0.90;;;0.90;;
7398;SDS011;3740;50.700;7.184;2023-04-28T12:56:27;1.15;;;1.05;;
7398;SDS011;3740;50.700;7.184;2023-04-28T12:58:53;0.90;;;0.90;;
7398;SDS011;3740;50.700;7.184;2023-04-28T13:01:18;1.02;;;0.93;;
7398;SDS011;3740;50.700;7.184;2023-04-28T13:03:44;1.10;;;1.02;;
7398;SDS011;3740;50.700;7.184;2023-04-28T13:06:11;1.02;;;0.98;;
7398;SDS011;3740;50.700;7.184;2023-04-28T13:08:37;0.98;;;0.90;;
7398;SDS011;3740;50.700;7.184;2023-04-28T13:11:03;0.80;;;0.80;;
7398;SDS011;3740;50.700;7.184;2023-04-28T13:13:30;0.88;;;0.80;;
7398;SDS011;3740;50.700;7.184;2023-04-28T13:15:55;0.80;;;0.80;;
7398;SDS011;3740;50.700;7.184;2023-04-28T13:18:21;0.80;;;0.80;;
7398;SDS011;3740;50.700;7.184;2023-04-28T13:20:47;0.85;;;0.82;;
7398;SDS011;3740;50.700;7.184;2023-04-28T13:23:13;0.80;;;0.80;;
7398;SDS011;3740;50.700;7.184;2023-04-28T13:25:38;0.80;;;0.80;;
7398;SDS011;3740;50.700;7.184;2023-04-28T13:28:04;0.70;;;0.70;;
7398;SDS011;3740;50.700;7.184;2023-04-28T13:30:30;0.63;;;0.63;;
7398;SDS011;3740;50.700;7.184;2023-04-28T13:32:55;0.77;;;0.70;;
7398;SDS011;3740;50.700;7.184;2023-04-28T13:35:21;0.68;;;0.68;;
7398;SDS011;3740;50.700;7.184;2023-04-28T13:37:48;0.90;;;0.90;;
7398;SDS011;3740;50.700;7.184;2023-04-28T13:40:13;1.20;;;1.10;;
7398;SDS011;3740;50.700;7.184;2023-04-28T13:42:39;1.90;;;1.15;;
7398;SDS011;3740;50.700;7.184;2023-04-28T13:45:05;0.90;;;0.90;;
7398;SDS011;3740;50.700;7.184;2023-04-28T13:47:30;2.15;;;1.40;;
7398;SDS011;3740;50.700;7.184;2023-04-28T13:49:56;1.50;;;1.40;;
7398;SDS011;3740;50.700;7.184;2023-04-28T13:52:24;2.35;;;2.15;;
7398;SDS011;3740;50.700;7.184;2023-04-28T13:54:50;1.63;;;1.50;;
7398;SDS011;3740;50.700;7.184;2023-04-28T13:57:15;2.08;;;1.98;;
7398;SDS011;3740;50.700;7.184;2023-04-28T13:59:41;1.58;;;1.48;;
7398;SDS011;3740;50.700;7.184;2023-04-28T14:02:06;1.50;;;1.40;;
7398;SDS011;3740;50.700;7.184;2023-04-28T14:04:35;1.70;;;1.60;;
7398;SDS011;3740;50.700;7.184;2023-04-28T14:07:01;1.50;;;1.40;;
7398;SDS011;3740;50.700;7.184;2023-04-28T14:09:26;1.70;;;1.60;;
7398;SDS011;3740;50.700;7.184;2023-04-28T14:11:52;1.90;;;1.80;;
7398;SDS011;3740;50.700;7.184;2023-04-28T14:14:20;1.60;;;1.50;;
7398;SDS011;3740;50.700;7.184;2023-04-28T14:16:46;1.58;;;1.48;;
7398;SDS011;3740;50.700;7.184;2023-04-28T14:19:12;1.42;;;1.38;;
7398;SDS011;3740;50.700;7.184;2023-04-28T14:21:41;1.60;;;1.50;;
7398;SDS011;3740;50.700;7.184;2023-04-28T14:24:07;3.25;;;2.45;;
7398;SDS011;3740;50.700;7.184;2023-04-28T14:26:34;1.92;;;1.83;;
7398;SDS011;3740;50.700;7.184;2023-04-28T14:29:00;1.90;;;1.80;;
7398;SDS011;3740;50.700;7.184;2023-04-28T14:31:25;2.10;;;2.00;;
7398;SDS011;3740;50.700;7.184;2023-04-28T14:33:52;2.00;;;1.90;;
7398;SDS011;3740;50.700;7.184;2023-04-28T14:36:18;2.13;;;2.03;;
7398;SDS011;3740;50.700;7.184;2023-04-28T14:38:43;2.00;;;1.83;;
7398;SDS011;3740;50.700;7.184;2023-04-28T14:41:09;1.80;;;1.70;;
7398;SDS011;3740;50.700;7.184;2023-04-28T14:43:35;1.90;;;1.80;;
7398;SDS011;3740;50.700;7.184;2023-04-28T14:46:02;1.40;;;1.40;;
7398;SDS011;3740;50.700;7.184;2023-04-28T14:48:28;2.00;;;1.90;;
7398;SDS011;3740;50.700;7.184;2023-04-28T14:50:53;2.38;;;2.28;;
7398;SDS011;3740;50.700;7.184;2023-04-28T14:53:19;3.35;;;2.55;;
7398;SDS011;3740;50.700;7.184;2023-04-28T14:55:45;2.65;;;2.50;;
7398;SDS011;3740;50.700;7.184;2023-04-28T14:58:10;2.50;;;2.30;;
7398;SDS011;3740;50.700;7.184;2023-04-28T15:00:36;2.90;;;2.70;;
7398;SDS011;3740;50.700;7.184;2023-04-28T15:03:02;2.92;;;2.72;;
7398;SDS011;3740;50.700;7.184;2023-04-28T15:05:28;3.30;;;3.03;;
7398;SDS011;3740;50.700;7.184;2023-04-28T15:07:53;3.75;;;3.30;;
7398;SDS011;3740;50.700;7.184;2023-04-28T15:10:19;3.20;;;3.00;;
7398;SDS011;3740;50.700;7.184;2023-04-28T15:12:46;3.13;;;2.92;;
7398;SDS011;3740;50.700;7.184;2023-04-28T15:15:12;3.42;;;3.13;;
7398;SDS011;3740;50.700;7.184;2023-04-28T15:17:38;2.65;;;2.45;;
7398;SDS011;3740;50.700;7.184;2023-04-28T15:20:04;3.38;;;2.80;;
7398;SDS011;3740;50.700;7.184;2023-04-28T15:22:30;3.50;;;3.20;;
7398;SDS011;3740;50.700;7.184;2023-04-28T15:24:56;3.05;;;2.85;;
7398;SDS011;3740;50.700;7.184;2023-04-28T15:27:22;2.13;;;2.03;;
7398;SDS011;3740;50.700;7.184;2023-04-28T15:29:47;2.22;;;2.10;;
7398;SDS011;3740;50.700;7.184;2023-04-28T15:32:14;1.67;;;1.58;;
7398;SDS011;3740;50.700;7.184;2023-04-28T15:34:40;2.40;;;2.20;;
7398;SDS011;3740;50.700;7.184;2023-04-28T15:37:34;1.98;;;1.88;;